sensor_id;sensor_type;location;lat;lon;timestamp;pressure;altitude;pressure_sealevel;temperature;humidity
11912;BME280;6016;41.928;25.556;2023-02-28T00:01:30;99548.69;;;14.67;80.60
11912;BME280;6016;41.928;25.556;2023-02-28T00:03:58;99557.63;;;14.66;81.18
11912;BME280;6016;41.928;25.556;2023-02-28T00:06:25;99564.91;;;14.63;81.30
11912;BME280;6016;41.928;25.556;2023-02-28T00:08:52;99560.59;;;14.62;80.95
11912;BME280;6016;41.928;25.556;2023-02-28T00:11:20;99557.50;;;14.67;80.53
11912;BME280;6016;41.928;25.556;2023-02-28T00:13:47;99571.44;;;14.69;80.53
11912;BME280;6016;41.928;25.556;2023-02-28T00:16:16;99580.22;;;14.70;80.66
11912;BME280;6016;41.928;25.556;2023-02-28T00:18:43;99549.56;;;14.49;80.76
11912;BME280;6016;41.928;25.556;2023-02-28T00:21:11;99571.91;;;14.65;80.20
11912;BME280;6016;41.928;25.556;2023-02-28T00:23:38;99571.44;;;14.69;79.71
11912;BME280;6016;41.928;25.556;2023-02-28T00:26:05;99571.44;;;14.69;79.35
11912;BME280;6016;41.928;25.556;2023-02-28T00:28:32;99330.25;;;13.14;79.02
11912;BME280;6016;41.928;25.556;2023-02-28T00:30:59;99572.72;;;14.47;79.74
11912;BME280;6016;41.928;25.556;2023-02-28T00:33:26;99598.69;;;14.53;79.42
11912;BME280;6016;41.928;25.556;2023-02-28T00:36:01;99539.41;;;14.08;78.96
11912;BME280;6016;41.928;25.556;2023-02-28T00:38:30;99602.19;;;14.54;79.28
11912;BME280;6016;41.928;25.556;2023-02-28T00:40:57;99612.56;;;14.47;79.42
11912;BME280;6016;41.928;25.556;2023-02-28T00:43:30;99566.84;;;14.17;79.69
11912;BME280;6016;41.928;25.556;2023-02-28T00:45:57;99554.94;;;14.03;80.19
11912;BME280;6016;41.928;25.556;2023-02-28T00:48:24;99607.50;;;14.35;79.60
11912;BME280;6016;41.928;25.556;2023-02-28T00:50:51;99617.25;;;14.35;80.08
11912;BME280;6016;41.928;25.556;2023-02-28T00:53:17;99608.94;;;14.30;79.27
11912;BME280;6016;41.928;25.556;2023-02-28T00:55:46;99622.44;;;14.37;78.36
11912;BME280;6016;41.928;25.556;2023-02-28T00:58:12;99611.09;;;14.34;78.16
11912;BME280;6016;41.928;25.556;2023-02-28T01:00:39;99580.19;;;14.07;78.30
11912;BME280;6016;41.928;25.556;2023-02-28T01:03:06;99556.59;;;13.86;77.47
11912;BME280;6016;41.928;25.556;2023-02-28T01:05:33;99635.53;;;14.20;77.39
11912;BME280;6016;41.928;25.556;2023-02-28T01:08:00;99585.81;;;13.76;77.15
11912;BME280;6016;41.928;25.556;2023-02-28T01:10:27;99606.09;;;13.67;77.19
11912;BME280;6016;41.928;25.556;2023-02-28T01:12:58;99640.47;;;13.87;76.51
11912;BME280;6016;41.928;25.556;2023-02-28T01:15:24;99639.63;;;13.86;77.30
11912;BME280;6016;41.928;25.556;2023-02-28T01:17:51;99552.66;;;13.34;76.51
11912;BME280;6016;41.928;25.556;2023-02-28T01:20:18;99640.56;;;13.95;76.38
11912;BME280;6016;41.928;25.556;2023-02-28T01:22:45;99558.66;;;13.36;75.34
11912;BME280;6016;41.928;25.556;2023-02-28T01:25:13;99624.91;;;13.74;75.34
11912;BME280;6016;41.928;25.556;2023-02-28T01:27:39;99645.22;;;13.55;75.63
11912;BME280;6016;41.928;25.556;2023-02-28T01:30:10;99614.84;;;13.49;76.23
11912;BME280;6016;41.928;25.556;2023-02-28T01:32:37;99645.97;;;13.75;75.09
11912;BME280;6016;41.928;25.556;2023-02-28T01:35:05;99656.03;;;13.72;75.30
11912;BME280;6016;41.928;25.556;2023-02-28T01:37:32;99662.00;;;13.74;75.16
11912;BME280;6016;41.928;25.556;2023-02-28T01:39:58;99659.66;;;13.71;74.38
11912;BME280;6016;41.928;25.556;2023-02-28T01:42:25;99648.25;;;13.60;74.51
11912;BME280;6016;41.928;25.556;2023-02-28T01:45:00;99677.66;;;13.67;73.65
11912;BME280;6016;41.928;25.556;2023-02-28T01:47:30;99674.38;;;13.55;73.51
11912;BME280;6016;41.928;25.556;2023-02-28T01:49:59;99677.59;;;13.39;74.48
11912;BME280;6016;41.928;25.556;2023-02-28T01:52:27;99478.97;;;12.04;74.95
11912;BME280;6016;41.928;25.556;2023-02-28T01:54:56;99677.22;;;13.14;73.74
11912;BME280;6016;41.928;25.556;2023-02-28T01:57:29;99680.72;;;13.05;74.79
11912;BME280;6016;41.928;25.556;2023-02-28T02:00:05;99682.66;;;13.13;74.69
11912;BME280;6016;41.928;25.556;2023-02-28T02:02:36;99570.00;;;12.51;73.55
11912;BME280;6016;41.928;25.556;2023-02-28T02:05:06;99683.53;;;13.03;73.25
11912;BME280;6016;41.928;25.556;2023-02-28T02:07:35;99676.72;;;12.91;73.77
11912;BME280;6016;41.928;25.556;2023-02-28T02:10:06;99679.34;;;12.91;73.18
11912;BME280;6016;41.928;25.556;2023-02-28T02:12:48;99635.88;;;12.44;73.15
11912;BME280;6016;41.928;25.556;2023-02-28T02:15:20;99702.75;;;12.76;73.74
11912;BME280;6016;41.928;25.556;2023-02-28T02:17:53;99676.41;;;12.55;73.63
11912;BME280;6016;41.928;25.556;2023-02-28T02:20:46;99699.13;;;12.67;73.60
11912;BME280;6016;41.928;25.556;2023-02-28T02:26:24;99707.19;;;12.65;72.94
11912;BME280;6016;41.928;25.556;2023-02-28T02:29:06;99714.84;;;12.39;72.94
11912;BME280;6016;41.928;25.556;2023-02-28T02:34:57;99724.97;;;12.24;74.50
11912;BME280;6016;41.928;25.556;2023-02-28T02:37:31;99727.59;;;12.14;73.63
11912;BME280;6016;41.928;25.556;2023-02-28T02:40:10;99722.41;;;12.13;73.51
11912;BME280;6016;41.928;25.556;2023-02-28T02:42:43;99728.31;;;11.95;73.92
11912;BME280;6016;41.928;25.556;2023-02-28T02:45:17;99733.44;;;11.96;73.88
11912;BME280;6016;41.928;25.556;2023-02-28T02:47:46;99719.13;;;11.99;76.13
11912;BME280;6016;41.928;25.556;2023-02-28T02:50:20;99690.94;;;11.78;72.75
11912;BME280;6016;41.928;25.556;2023-02-28T02:52:53;99713.47;;;12.04;72.48
11912;BME280;6016;41.928;25.556;2023-02-28T02:55:23;99730.66;;;12.19;71.38
11912;BME280;6016;41.928;25.556;2023-02-28T02:57:53;99729.38;;;12.14;71.91
11912;BME280;6016;41.928;25.556;2023-02-28T03:00:25;99684.31;;;11.94;71.33
11912;BME280;6016;41.928;25.556;2023-02-28T03:02:54;99746.13;;;12.34;70.98
11912;BME280;6016;41.928;25.556;2023-02-28T03:05:26;99752.13;;;12.36;69.89
11912;BME280;6016;41.928;25.556;2023-02-28T03:07:55;99751.44;;;12.34;69.24
11912;BME280;6016;41.928;25.556;2023-02-28T03:10:31;99752.75;;;12.08;71.02
11912;BME280;6016;41.928;25.556;2023-02-28T03:13:08;99578.03;;;10.87;69.59
11912;BME280;6016;41.928;25.556;2023-02-28T03:15:45;99751.84;;;11.98;72.19
11912;BME280;6016;41.928;25.556;2023-02-28T03:18:21;99478.63;;;10.24;70.49
11912;BME280;6016;41.928;25.556;2023-02-28T03:20:57;99767.78;;;11.87;70.52
11912;BME280;6016;41.928;25.556;2023-02-28T03:23:31;99688.38;;;11.36;71.43
11912;BME280;6016;41.928;25.556;2023-02-28T03:26:06;99733.06;;;11.70;71.25
11912;BME280;6016;41.928;25.556;2023-02-28T03:28:41;99755.44;;;11.97;71.28
11912;BME280;6016;41.928;25.556;2023-02-28T03:31:16;99719.19;;;11.78;69.68
11912;BME280;6016;41.928;25.556;2023-02-28T03:33:47;99750.94;;;12.09;68.97
11912;BME280;6016;41.928;25.556;2023-02-28T03:36:23;99755.78;;;12.04;69.79
11912;BME280;6016;41.928;25.556;2023-02-28T03:38:54;99751.69;;;12.00;70.78
11912;BME280;6016;41.928;25.556;2023-02-28T03:41:26;99733.03;;;11.91;70.00
11912;BME280;6016;41.928;25.556;2023-02-28T03:43:59;99745.38;;;12.12;70.19
11912;BME280;6016;41.928;25.556;2023-02-28T03:46:32;99749.88;;;12.21;68.67
11912;BME280;6016;41.928;25.556;2023-02-28T03:49:04;99734.38;;;12.07;69.10
11912;BME280;6016;41.928;25.556;2023-02-28T03:51:35;99754.81;;;12.05;67.77
11912;BME280;6016;41.928;25.556;2023-02-28T03:54:07;99755.97;;;11.91;67.80
11912;BME280;6016;41.928;25.556;2023-02-28T03:56:37;99764.47;;;12.16;68.27
11912;BME280;6016;41.928;25.556;2023-02-28T03:59:08;99763.25;;;12.20;68.08
11912;BME280;6016;41.928;25.556;2023-02-28T04:01:41;99704.47;;;11.85;68.37
11912;BME280;6016;41.928;25.556;2023-02-28T04:04:10;99761.97;;;12.14;67.67
11912;BME280;6016;41.928;25.556;2023-02-28T04:06:39;99776.09;;;12.03;68.67
11912;BME280;6016;41.928;25.556;2023-02-28T04:09:08;99622.56;;;10.59;69.01
11912;BME280;6016;41.928;25.556;2023-02-28T04:11:37;99800.28;;;11.56;68.81
11912;BME280;6016;41.928;25.556;2023-02-28T04:14:05;99785.06;;;11.70;69.93
11912;BME280;6016;41.928;25.556;2023-02-28T04:16:34;99797.69;;;11.87;70.37
11912;BME280;6016;41.928;25.556;2023-02-28T04:19:02;99799.38;;;11.88;68.77
11912;BME280;6016;41.928;25.556;2023-02-28T04:21:30;99760.00;;;11.64;68.63
11912;BME280;6016;41.928;25.556;2023-02-28T04:23:59;99799.16;;;12.01;68.58
11912;BME280;6016;41.928;25.556;2023-02-28T04:26:28;99804.91;;;12.06;68.73
11912;BME280;6016;41.928;25.556;2023-02-28T04:28:56;99805.38;;;11.90;67.70
11912;BME280;6016;41.928;25.556;2023-02-28T04:31:23;99696.16;;;10.95;67.67
11912;BME280;6016;41.928;25.556;2023-02-28T04:33:49;99814.19;;;11.58;68.70
11912;BME280;6016;41.928;25.556;2023-02-28T04:36:16;99806.84;;;11.40;68.99
11912;BME280;6016;41.928;25.556;2023-02-28T04:38:44;99784.81;;;11.30;70.41
11912;BME280;6016;41.928;25.556;2023-02-28T04:41:13;99807.31;;;11.46;69.49
11912;BME280;6016;41.928;25.556;2023-02-28T04:43:40;99781.13;;;11.21;70.79
11912;BME280;6016;41.928;25.556;2023-02-28T04:46:07;99809.94;;;11.67;71.32
11912;BME280;6016;41.928;25.556;2023-02-28T04:48:36;99810.31;;;11.62;69.67
11912;BME280;6016;41.928;25.556;2023-02-28T04:51:05;99820.66;;;11.65;69.34
11912;BME280;6016;41.928;25.556;2023-02-28T04:53:32;99825.63;;;11.59;70.21
11912;BME280;6016;41.928;25.556;2023-02-28T04:55:59;99813.66;;;11.43;69.03
11912;BME280;6016;41.928;25.556;2023-02-28T04:58:27;99842.78;;;11.64;69.56
11912;BME280;6016;41.928;25.556;2023-02-28T05:01:01;99828.97;;;11.61;69.73
11912;BME280;6016;41.928;25.556;2023-02-28T05:03:28;99844.25;;;11.78;68.19
11912;BME280;6016;41.928;25.556;2023-02-28T05:05:55;99792.53;;;11.43;69.67
11912;BME280;6016;41.928;25.556;2023-02-28T05:08:22;99848.31;;;11.82;69.92
11912;BME280;6016;41.928;25.556;2023-02-28T05:10:48;99852.06;;;11.80;69.97
11912;BME280;6016;41.928;25.556;2023-02-28T05:13:15;99851.78;;;11.83;70.01
11912;BME280;6016;41.928;25.556;2023-02-28T05:15:43;99840.06;;;11.76;68.84
11912;BME280;6016;41.928;25.556;2023-02-28T05:18:10;99831.94;;;11.67;69.14
11912;BME280;6016;41.928;25.556;2023-02-28T05:20:37;99880.22;;;11.91;68.76
11912;BME280;6016;41.928;25.556;2023-02-28T05:23:04;99883.41;;;11.52;70.75
11912;BME280;6016;41.928;25.556;2023-02-28T05:25:31;99855.66;;;11.58;71.05
11912;BME280;6016;41.928;25.556;2023-02-28T05:27:58;99834.69;;;11.45;69.88
11912;BME280;6016;41.928;25.556;2023-02-28T05:30:24;99856.09;;;11.63;71.43
11912;BME280;6016;41.928;25.556;2023-02-28T05:32:52;99869.13;;;11.43;72.07
11912;BME280;6016;41.928;25.556;2023-02-28T05:35:19;99880.22;;;11.37;71.64
11912;BME280;6016;41.928;25.556;2023-02-28T05:37:49;99881.63;;;11.41;71.67
11912;BME280;6016;41.928;25.556;2023-02-28T05:40:19;99894.78;;;11.31;71.07
11912;BME280;6016;41.928;25.556;2023-02-28T05:43:14;99878.25;;;11.50;71.48
11912;BME280;6016;41.928;25.556;2023-02-28T05:45:45;99861.13;;;11.33;71.82
11912;BME280;6016;41.928;25.556;2023-02-28T05:48:14;99894.88;;;11.62;71.96
11912;BME280;6016;41.928;25.556;2023-02-28T05:50:40;99904.09;;;11.68;70.83
11912;BME280;6016;41.928;25.556;2023-02-28T05:53:08;99818.72;;;11.14;70.62
11912;BME280;6016;41.928;25.556;2023-02-28T05:55:34;99874.72;;;11.61;71.52
11912;BME280;6016;41.928;25.556;2023-02-28T05:58:02;99882.91;;;11.79;71.46
11912;BME280;6016;41.928;25.556;2023-02-28T06:00:29;99878.41;;;11.70;71.84
11912;BME280;6016;41.928;25.556;2023-02-28T06:02:56;99817.59;;;11.28;70.51
11912;BME280;6016;41.928;25.556;2023-02-28T06:05:28;99844.38;;;11.23;71.58
11912;BME280;6016;41.928;25.556;2023-02-28T06:07:57;99902.16;;;11.49;72.66
11912;BME280;6016;41.928;25.556;2023-02-28T06:10:25;99877.88;;;11.22;72.71
11912;BME280;6016;41.928;25.556;2023-02-28T06:12:55;99922.53;;;11.58;71.67
11912;BME280;6016;41.928;25.556;2023-02-28T06:15:21;99927.22;;;11.54;70.63
11912;BME280;6016;41.928;25.556;2023-02-28T06:17:50;99820.88;;;10.64;71.05
11912;BME280;6016;41.928;25.556;2023-02-28T06:20:19;99939.38;;;11.46;72.64
11912;BME280;6016;41.928;25.556;2023-02-28T06:22:47;99917.94;;;11.28;71.88
11912;BME280;6016;41.928;25.556;2023-02-28T06:25:15;99932.13;;;11.59;71.61
11912;BME280;6016;41.928;25.556;2023-02-28T06:27:42;99943.31;;;11.63;72.10
11912;BME280;6016;41.928;25.556;2023-02-28T06:30:10;99945.72;;;11.54;71.36
11912;BME280;6016;41.928;25.556;2023-02-28T06:32:37;99954.41;;;11.45;72.20
11912;BME280;6016;41.928;25.556;2023-02-28T06:35:04;99904.06;;;11.03;72.52
11912;BME280;6016;41.928;25.556;2023-02-28T06:37:32;99920.16;;;11.11;72.46
11912;BME280;6016;41.928;25.556;2023-02-28T06:40:00;99967.81;;;11.53;72.58
11912;BME280;6016;41.928;25.556;2023-02-28T06:42:28;99953.72;;;11.32;72.76
11912;BME280;6016;41.928;25.556;2023-02-28T06:44:56;99955.84;;;11.38;73.75
11912;BME280;6016;41.928;25.556;2023-02-28T06:47:23;99839.47;;;10.63;74.49
11912;BME280;6016;41.928;25.556;2023-02-28T06:49:50;99963.69;;;11.28;74.43
11912;BME280;6016;41.928;25.556;2023-02-28T06:52:17;99930.06;;;11.30;76.17
11912;BME280;6016;41.928;25.556;2023-02-28T06:54:44;99916.91;;;11.07;73.51
11912;BME280;6016;41.928;25.556;2023-02-28T06:57:12;99937.38;;;11.71;75.26
11912;BME280;6016;41.928;25.556;2023-02-28T06:59:39;99896.66;;;11.40;72.86
11912;BME280;6016;41.928;25.556;2023-02-28T07:02:07;99945.84;;;11.64;72.82
11912;BME280;6016;41.928;25.556;2023-02-28T07:04:34;99951.50;;;11.60;73.77
11912;BME280;6016;41.928;25.556;2023-02-28T07:07:01;99943.81;;;11.57;73.69
11912;BME280;6016;41.928;25.556;2023-02-28T07:09:27;99941.38;;;11.65;73.76
11912;BME280;6016;41.928;25.556;2023-02-28T07:11:56;99954.53;;;11.76;72.66
11912;BME280;6016;41.928;25.556;2023-02-28T07:14:25;99938.03;;;11.63;73.13
11912;BME280;6016;41.928;25.556;2023-02-28T07:16:52;99958.88;;;11.77;73.12
11912;BME280;6016;41.928;25.556;2023-02-28T07:19:19;99956.75;;;11.71;73.41
11912;BME280;6016;41.928;25.556;2023-02-28T07:21:46;99960.47;;;11.68;74.15
11912;BME280;6016;41.928;25.556;2023-02-28T07:24:12;99962.72;;;11.73;74.33
11912;BME280;6016;41.928;25.556;2023-02-28T07:26:41;99950.13;;;11.77;74.35
11912;BME280;6016;41.928;25.556;2023-02-28T07:29:07;99934.94;;;11.58;73.66
11912;BME280;6016;41.928;25.556;2023-02-28T07:31:35;99960.53;;;11.78;73.72
11912;BME280;6016;41.928;25.556;2023-02-28T07:34:02;99916.91;;;11.51;73.32
11912;BME280;6016;41.928;25.556;2023-02-28T07:36:29;99925.09;;;11.48;73.83
11912;BME280;6016;41.928;25.556;2023-02-28T07:38:58;99939.66;;;11.43;74.47
11912;BME280;6016;41.928;25.556;2023-02-28T07:41:27;99950.03;;;11.56;75.12
11912;BME280;6016;41.928;25.556;2023-02-28T07:43:55;99946.31;;;11.58;74.54
11912;BME280;6016;41.928;25.556;2023-02-28T07:46:23;99960.25;;;11.49;74.69
11912;BME280;6016;41.928;25.556;2023-02-28T07:48:51;99861.28;;;10.76;75.50
11912;BME280;6016;41.928;25.556;2023-02-28T07:51:18;99957.25;;;11.53;76.87
11912;BME280;6016;41.928;25.556;2023-02-28T07:53:46;99914.59;;;11.25;75.26
11912;BME280;6016;41.928;25.556;2023-02-28T07:56:12;99934.25;;;11.44;76.08
11912;BME280;6016;41.928;25.556;2023-02-28T07:58:39;99888.53;;;11.21;76.40
11912;BME280;6016;41.928;25.556;2023-02-28T08:01:06;99973.00;;;11.88;75.91
11912;BME280;6016;41.928;25.556;2023-02-28T08:03:34;99959.56;;;11.79;75.16
11912;BME280;6016;41.928;25.556;2023-02-28T08:06:03;99979.69;;;12.03;74.54
11912;BME280;6016;41.928;25.556;2023-02-28T08:08:30;99977.66;;;12.07;73.52
11912;BME280;6016;41.928;25.556;2023-02-28T08:10:58;99970.28;;;11.78;72.64
11912;BME280;6016;41.928;25.556;2023-02-28T08:13:26;99975.19;;;11.82;74.51
11912;BME280;6016;41.928;25.556;2023-02-28T08:15:53;99921.38;;;11.51;77.23
11912;BME280;6016;41.928;25.556;2023-02-28T08:18:20;99981.72;;;12.00;75.67
11912;BME280;6016;41.928;25.556;2023-02-28T08:20:48;99971.75;;;12.03;75.08
11912;BME280;6016;41.928;25.556;2023-02-28T08:23:16;99990.94;;;12.17;74.79
11912;BME280;6016;41.928;25.556;2023-02-28T08:25:43;99957.19;;;12.09;74.12
11912;BME280;6016;41.928;25.556;2023-02-28T08:28:09;99954.81;;;12.06;72.73
11912;BME280;6016;41.928;25.556;2023-02-28T08:30:36;99953.31;;;12.13;74.63
11912;BME280;6016;41.928;25.556;2023-02-28T08:33:06;99975.22;;;12.36;73.64
11912;BME280;6016;41.928;25.556;2023-02-28T08:35:35;99527.38;;;9.53;73.96
11912;BME280;6016;41.928;25.556;2023-02-28T08:38:02;99939.16;;;12.14;74.26
11912;BME280;6016;41.928;25.556;2023-02-28T08:40:30;99888.13;;;11.70;73.08
11912;BME280;6016;41.928;25.556;2023-02-28T08:42:57;99970.63;;;12.17;74.60
11912;BME280;6016;41.928;25.556;2023-02-28T08:45:25;99955.63;;;12.06;74.71
11912;BME280;6016;41.928;25.556;2023-02-28T08:47:53;99978.50;;;12.07;74.77
11912;BME280;6016;41.928;25.556;2023-02-28T08:50:21;99980.09;;;11.87;75.84
11912;BME280;6016;41.928;25.556;2023-02-28T08:52:47;99956.97;;;11.68;76.90
11912;BME280;6016;41.928;25.556;2023-02-28T08:55:14;99953.13;;;11.72;77.03
11912;BME280;6016;41.928;25.556;2023-02-28T08:57:43;99967.19;;;11.94;77.52
11912;BME280;6016;41.928;25.556;2023-02-28T09:00:11;99980.19;;;11.97;77.32
11912;BME280;6016;41.928;25.556;2023-02-28T09:02:38;99978.66;;;11.83;77.14
11912;BME280;6016;41.928;25.556;2023-02-28T09:05:06;99921.22;;;11.52;78.30
11912;BME280;6016;41.928;25.556;2023-02-28T09:07:33;99984.59;;;12.08;78.31
11912;BME280;6016;41.928;25.556;2023-02-28T09:10:00;99989.25;;;12.16;77.38
11912;BME280;6016;41.928;25.556;2023-02-28T09:12:27;99927.78;;;11.70;77.36
11912;BME280;6016;41.928;25.556;2023-02-28T09:15:00;99978.81;;;12.14;77.80
11912;BME280;6016;41.928;25.556;2023-02-28T09:17:27;99970.19;;;11.68;79.33
11912;BME280;6016;41.928;25.556;2023-02-28T09:19:54;99954.88;;;11.83;79.29
11912;BME280;6016;41.928;25.556;2023-02-28T09:22:21;99978.38;;;11.98;78.46
11912;BME280;6016;41.928;25.556;2023-02-28T09:24:48;99889.19;;;11.46;78.65
11912;BME280;6016;41.928;25.556;2023-02-28T09:27:14;99957.53;;;11.83;78.90
11912;BME280;6016;41.928;25.556;2023-02-28T09:29:41;99961.47;;;11.89;78.58
11912;BME280;6016;41.928;25.556;2023-02-28T09:32:09;99884.28;;;11.41;78.53
11912;BME280;6016;41.928;25.556;2023-02-28T09:34:37;99954.56;;;11.98;78.98
11912;BME280;6016;41.928;25.556;2023-02-28T09:37:04;99949.28;;;11.98;79.48
11912;BME280;6016;41.928;25.556;2023-02-28T09:39:31;99873.69;;;11.52;78.85
11912;BME280;6016;41.928;25.556;2023-02-28T09:41:57;99903.75;;;11.94;78.47
11912;BME280;6016;41.928;25.556;2023-02-28T09:44:30;99943.41;;;12.27;79.17
11912;BME280;6016;41.928;25.556;2023-02-28T09:47:01;99950.28;;;12.18;80.20
11912;BME280;6016;41.928;25.556;2023-02-28T09:49:36;99920.88;;;12.11;77.78
11912;BME280;6016;41.928;25.556;2023-02-28T09:52:06;99952.38;;;12.14;77.74
11912;BME280;6016;41.928;25.556;2023-02-28T09:54:35;99961.13;;;12.15;78.62
11912;BME280;6016;41.928;25.556;2023-02-28T09:57:06;99898.00;;;11.67;77.38
11912;BME280;6016;41.928;25.556;2023-02-28T09:59:55;99971.44;;;11.85;80.16
11912;BME280;6016;41.928;25.556;2023-02-28T10:02:46;99963.81;;;11.71;81.33
11912;BME280;6016;41.928;25.556;2023-02-28T10:05:19;99965.53;;;11.93;80.17
11912;BME280;6016;41.928;25.556;2023-02-28T10:07:58;99935.22;;;11.76;79.00
11912;BME280;6016;41.928;25.556;2023-02-28T10:10:30;99963.19;;;11.78;79.59
11912;BME280;6016;41.928;25.556;2023-02-28T10:13:03;99955.91;;;11.92;80.05
11912;BME280;6016;41.928;25.556;2023-02-28T10:15:32;99950.19;;;11.87;79.79
11912;BME280;6016;41.928;25.556;2023-02-28T10:18:04;99901.66;;;11.55;79.34
11912;BME280;6016;41.928;25.556;2023-02-28T10:20:35;99929.25;;;11.95;79.14
11912;BME280;6016;41.928;25.556;2023-02-28T10:23:11;99903.09;;;11.80;79.18
11912;BME280;6016;41.928;25.556;2023-02-28T10:25:43;99916.16;;;11.93;78.59
11912;BME280;6016;41.928;25.556;2023-02-28T10:28:15;99941.53;;;12.17;78.74
11912;BME280;6016;41.928;25.556;2023-02-28T10:30:46;99906.69;;;12.12;78.38
11912;BME280;6016;41.928;25.556;2023-02-28T10:33:19;99891.94;;;12.09;77.87
11912;BME280;6016;41.928;25.556;2023-02-28T10:35:48;99916.47;;;12.43;77.80
11912;BME280;6016;41.928;25.556;2023-02-28T10:38:17;99860.38;;;12.18;77.37
11912;BME280;6016;41.928;25.556;2023-02-28T10:40:45;99590.69;;;10.51;76.66
11912;BME280;6016;41.928;25.556;2023-02-28T10:43:20;99899.63;;;12.44;77.30
11912;BME280;6016;41.928;25.556;2023-02-28T10:46:02;99814.00;;;11.92;77.18
11912;BME280;6016;41.928;25.556;2023-02-28T10:48:33;99901.13;;;12.36;77.63
11912;BME280;6016;41.928;25.556;2023-02-28T10:51:02;99913.97;;;12.41;77.05
11912;BME280;6016;41.928;25.556;2023-02-28T10:53:33;99895.78;;;12.27;77.07
11912;BME280;6016;41.928;25.556;2023-02-28T10:56:03;99914.75;;;12.32;75.73
11912;BME280;6016;41.928;25.556;2023-02-28T10:58:34;99887.97;;;12.25;76.73
11912;BME280;6016;41.928;25.556;2023-02-28T11:01:14;99895.06;;;12.24;78.16
11912;BME280;6016;41.928;25.556;2023-02-28T11:03:41;99899.25;;;12.27;77.79
11912;BME280;6016;41.928;25.556;2023-02-28T11:06:16;99887.38;;;12.43;76.40
11912;BME280;6016;41.928;25.556;2023-02-28T11:08:46;99754.97;;;11.61;75.47
11912;BME280;6016;41.928;25.556;2023-02-28T11:11:14;99888.69;;;12.27;77.07
11912;BME280;6016;41.928;25.556;2023-02-28T11:13:44;99881.75;;;12.36;76.04
11912;BME280;6016;41.928;25.556;2023-02-28T11:16:13;99887.50;;;12.41;76.08
11912;BME280;6016;41.928;25.556;2023-02-28T11:18:43;99839.19;;;12.18;75.39
11912;BME280;6016;41.928;25.556;2023-02-28T11:21:22;99892.22;;;12.37;75.73
11912;BME280;6016;41.928;25.556;2023-02-28T11:23:52;99820.44;;;12.00;76.17
11912;BME280;6016;41.928;25.556;2023-02-28T11:26:42;99891.53;;;12.35;76.18
11912;BME280;6016;41.928;25.556;2023-02-28T11:29:18;99886.38;;;12.44;75.48
11912;BME280;6016;41.928;25.556;2023-02-28T11:32:02;99847.28;;;11.95;76.60
11912;BME280;6016;41.928;25.556;2023-02-28T11:34:30;99884.28;;;12.37;75.92
11912;BME280;6016;41.928;25.556;2023-02-28T11:37:00;99889.84;;;12.34;75.74
11912;BME280;6016;41.928;25.556;2023-02-28T11:39:30;99887.00;;;12.26;75.62
11912;BME280;6016;41.928;25.556;2023-02-28T11:42:11;99876.16;;;12.29;75.56
11912;BME280;6016;41.928;25.556;2023-02-28T11:44:57;99879.72;;;12.18;76.25
11912;BME280;6016;41.928;25.556;2023-02-28T11:47:33;99867.22;;;12.20;77.31
11912;BME280;6016;41.928;25.556;2023-02-28T11:50:17;99871.41;;;12.23;77.53
11912;BME280;6016;41.928;25.556;2023-02-28T11:52:52;99868.75;;;12.23;78.83
11912;BME280;6016;41.928;25.556;2023-02-28T11:55:24;99869.34;;;12.27;78.95
11912;BME280;6016;41.928;25.556;2023-02-28T11:58:00;99824.78;;;11.79;79.98
11912;BME280;6016;41.928;25.556;2023-02-28T12:00:44;99870.50;;;12.13;80.13
11912;BME280;6016;41.928;25.556;2023-02-28T12:03:26;99871.34;;;12.13;80.76
11912;BME280;6016;41.928;25.556;2023-02-28T12:06:01;99868.44;;;11.95;81.01
11912;BME280;6016;41.928;25.556;2023-02-28T12:08:43;99825.34;;;11.83;80.49
11912;BME280;6016;41.928;25.556;2023-02-28T12:11:22;99803.97;;;11.65;81.93
11912;BME280;6016;41.928;25.556;2023-02-28T12:14:14;99871.28;;;12.03;82.15
11912;BME280;6016;41.928;25.556;2023-02-28T12:16:51;99879.81;;;12.07;82.10
11912;BME280;6016;41.928;25.556;2023-02-28T12:19:26;99875.91;;;12.11;81.90
11912;BME280;6016;41.928;25.556;2023-02-28T12:22:26;99839.97;;;11.87;81.22
11912;BME280;6016;41.928;25.556;2023-02-28T12:25:09;99853.78;;;11.91;81.24
11912;BME280;6016;41.928;25.556;2023-02-28T12:27:46;99874.13;;;12.12;80.90
11912;BME280;6016;41.928;25.556;2023-02-28T12:30:17;99873.03;;;12.14;82.10
11912;BME280;6016;41.928;25.556;2023-02-28T12:32:48;99866.69;;;12.05;82.23
11912;BME280;6016;41.928;25.556;2023-02-28T12:35:19;99863.94;;;12.07;83.02
11912;BME280;6016;41.928;25.556;2023-02-28T12:37:53;99849.16;;;11.83;83.12
11912;BME280;6016;41.928;25.556;2023-02-28T12:40:27;99865.16;;;12.03;84.19
11912;BME280;6016;41.928;25.556;2023-02-28T12:42:58;99853.78;;;12.12;84.02
11912;BME280;6016;41.928;25.556;2023-02-28T12:45:39;99854.09;;;12.19;83.66
11912;BME280;6016;41.928;25.556;2023-02-28T12:48:10;99850.63;;;12.18;83.42
11912;BME280;6016;41.928;25.556;2023-02-28T12:50:40;99856.94;;;12.27;82.88
11912;BME280;6016;41.928;25.556;2023-02-28T12:53:10;99843.44;;;12.30;82.58
11912;BME280;6016;41.928;25.556;2023-02-28T12:55:47;99844.88;;;12.34;82.53
11912;BME280;6016;41.928;25.556;2023-02-28T12:58:21;99824.78;;;12.22;82.10
11912;BME280;6016;41.928;25.556;2023-02-28T13:01:13;99840.72;;;12.10;82.73
11912;BME280;6016;41.928;25.556;2023-02-28T13:04:24;99819.59;;;11.99;83.05
11912;BME280;6016;41.928;25.556;2023-02-28T13:07:08;99756.94;;;11.59;82.97
11912;BME280;6016;41.928;25.556;2023-02-28T13:09:38;99837.41;;;11.97;83.42
11912;BME280;6016;41.928;25.556;2023-02-28T13:12:14;99836.63;;;12.06;84.02
11912;BME280;6016;41.928;25.556;2023-02-28T13:14:42;99840.06;;;11.97;83.82
11912;BME280;6016;41.928;25.556;2023-02-28T13:17:17;99801.78;;;11.70;84.24
11912;BME280;6016;41.928;25.556;2023-02-28T13:19:56;99837.63;;;12.05;83.75
11912;BME280;6016;41.928;25.556;2023-02-28T13:22:38;99838.94;;;12.00;83.45
11912;BME280;6016;41.928;25.556;2023-02-28T13:34:40;99773.81;;;11.67;84.77